createdAt,value
2022-11-14T00:01:09.616Z,80.60
2022-11-14T00:04:53.187Z,80.80
2022-11-14T00:08:35.673Z,80.70
2022-11-14T00:12:17.861Z,80.80
2022-11-14T00:16:00.070Z,80.80
2022-11-14T00:19:42.398Z,80.60
2022-11-14T00:23:26.080Z,80.70
2022-11-14T00:27:08.219Z,80.80
2022-11-14T00:30:50.769Z,80.90
2022-11-14T00:34:33.170Z,80.90
2022-11-14T00:38:16.268Z,80.90
2022-11-14T00:41:59.532Z,81.00
2022-11-14T00:45:43.674Z,81.10
2022-11-14T00:49:25.776Z,81.00
2022-11-14T00:53:08.428Z,81.00
2022-11-14T00:56:50.580Z,81.00
2022-11-14T01:00:34.092Z,80.80
2022-11-14T01:04:16.982Z,80.80
2022-11-14T01:07:58.864Z,80.90
2022-11-14T01:11:41.256Z,80.90
2022-11-14T01:15:23.270Z,80.60
2022-11-14T01:19:07.014Z,80.40
2022-11-14T01:22:49.194Z,81.00
2022-11-14T01:26:31.461Z,80.20
2022-11-14T01:30:15.082Z,80.10
2022-11-14T01:33:57.010Z,79.90
2022-11-14T01:37:40.632Z,80.10
2022-11-14T01:41:23.150Z,80.20
2022-11-14T01:45:56.595Z,80.50
2022-11-14T01:49:43.477Z,80.30
2022-11-14T01:53:27.757Z,80.40
2022-11-14T01:57:14.763Z,80.30
2022-11-14T02:00:57.616Z,80.40
2022-11-14T02:04:48.096Z,80.40
2022-11-14T02:08:32.878Z,80.30
2022-11-14T02:12:19.453Z,80.30
2022-11-14T02:16:01.270Z,80.20
2022-11-14T02:19:46.553Z,80.10
2022-11-14T02:23:33.234Z,80.20
2022-11-14T02:27:17.398Z,80.30
2022-11-14T02:30:59.268Z,80.30
2022-11-14T02:34:41.428Z,80.10
2022-11-14T02:38:23.451Z,80.10
2022-11-14T02:42:07.082Z,80.20
2022-11-14T02:45:49.308Z,80.20
2022-11-14T02:49:31.928Z,80.40
2022-11-14T02:53:13.937Z,80.70
2022-11-14T02:56:56.058Z,80.90
2022-11-14T03:00:59.213Z,81.40
2022-11-14T03:04:41.628Z,81.70
2022-11-14T03:08:23.964Z,82.00
2022-11-14T03:12:06.620Z,82.20
2022-11-14T03:15:50.159Z,82.30
2022-11-14T03:19:32.411Z,82.30
2022-11-14T03:23:14.762Z,82.00
2022-11-14T03:26:57.066Z,81.80
2022-11-14T03:30:39.183Z,81.60
2022-11-14T03:34:22.664Z,81.60
2022-11-14T03:38:04.561Z,81.50
2022-11-14T03:41:46.796Z,81.50
2022-11-14T03:45:28.953Z,81.50
2022-11-14T03:49:11.111Z,81.50
2022-11-14T03:52:54.526Z,80.30
2022-11-14T03:56:36.707Z,82.00
2022-11-14T04:00:19.821Z,81.10
2022-11-14T04:04:01.662Z,81.20
2022-11-14T04:07:43.750Z,81.30
2022-11-14T04:11:27.312Z,81.30
2022-11-14T04:15:10.692Z,81.30
2022-11-14T04:18:52.905Z,81.20
2022-11-14T04:22:35.162Z,80.90
2022-11-14T04:26:17.355Z,80.90
2022-11-14T04:30:00.851Z,80.60
2022-11-14T04:33:42.990Z,80.40
2022-11-14T04:37:25.102Z,80.50
2022-11-14T04:41:07.405Z,80.50
2022-11-14T04:44:49.637Z,80.70
2022-11-14T04:48:33.214Z,80.90
2022-11-14T04:52:15.122Z,81.00
2022-11-14T04:55:57.242Z,80.80
2022-11-14T04:59:39.403Z,80.90
2022-11-14T05:03:21.722Z,80.90
2022-11-14T05:07:05.398Z,80.70
2022-11-14T05:10:47.597Z,80.60
2022-11-14T05:14:29.495Z,80.70
2022-11-14T05:18:11.888Z,81.00
2022-11-14T05:21:54.175Z,81.30
2022-11-14T05:25:37.631Z,81.00
2022-11-14T05:29:20.078Z,81.40
2022-11-14T05:33:01.847Z,81.40
2022-11-14T05:36:44.036Z,81.20
2022-11-14T05:40:26.111Z,81.50
2022-11-14T05:44:09.986Z,81.60
2022-11-14T05:47:54.838Z,81.60
2022-11-14T05:51:36.938Z,81.60
2022-11-14T05:55:24.383Z,81.60
2022-11-14T05:59:07.114Z,81.60
2022-11-14T06:02:54.179Z,81.70
2022-11-14T06:06:36.143Z,81.80
2022-11-14T06:10:18.334Z,82.10
2022-11-14T06:14:00.078Z,82.40
2022-11-14T06:17:42.268Z,82.80
2022-11-14T06:21:27.442Z,83.10
2022-11-14T06:25:10.677Z,83.40
2022-11-14T06:28:54.893Z,83.70
2022-11-14T06:32:37.013Z,83.90
2022-11-14T06:36:19.816Z,84.40
2022-11-14T06:40:03.480Z,84.80
2022-11-14T06:43:48.627Z,84.80
2022-11-14T06:47:30.874Z,85.00
2022-11-14T06:51:14.432Z,85.40
2022-11-14T06:54:56.299Z,85.80
2022-11-14T06:58:42.469Z,86.10
2022-11-14T07:02:24.755Z,86.00
2022-11-14T07:06:08.707Z,86.00
2022-11-14T07:09:50.967Z,86.10
2022-11-14T07:13:35.344Z,86.40
2022-11-14T07:17:19.055Z,86.90
2022-11-14T07:21:03.724Z,86.80
2022-11-14T07:24:45.979Z,86.80
2022-11-14T07:28:28.213Z,87.20
2022-11-14T07:32:10.238Z,87.00
2022-11-14T07:35:54.142Z,86.70
2022-11-14T07:39:36.262Z,86.50
2022-11-14T07:43:18.475Z,86.50
2022-11-14T07:47:00.500Z,86.80
2022-11-14T07:50:43.297Z,87.40
2022-11-14T07:54:26.706Z,88.20
2022-11-14T07:58:08.552Z,89.20
2022-11-14T08:01:51.210Z,90.00
2022-11-14T08:05:33.777Z,90.10
2022-11-14T08:09:15.741Z,90.10
2022-11-14T08:17:07.856Z,90.10
2022-11-14T08:20:50.108Z,90.10
2022-11-14T08:24:32.193Z,90.20
2022-11-14T08:28:15.816Z,90.20
2022-11-14T08:32:00.065Z,90.50
2022-11-14T08:35:42.488Z,90.80
2022-11-14T08:39:24.951Z,91.30
2022-11-14T08:43:07.354Z,92.50
2022-11-14T08:46:51.829Z,93.60
2022-11-14T08:50:33.808Z,94.40
2022-11-14T08:54:16.059Z,94.80
2022-11-14T08:57:58.266Z,95.20
2022-11-14T09:01:40.394Z,95.50
2022-11-14T09:05:23.790Z,95.90
2022-11-14T09:09:05.869Z,96.50
2022-11-14T09:12:47.968Z,96.50
2022-11-14T09:16:30.218Z,96.60
2022-11-14T09:20:12.297Z,96.70
2022-11-14T09:24:00.573Z,96.60
2022-11-14T09:27:43.807Z,96.40
2022-11-14T09:31:25.681Z,95.60
2022-11-14T09:35:08.729Z,95.30
2022-11-14T09:38:52.805Z,94.90
2022-11-14T09:43:19.202Z,95.10
2022-11-14T09:47:08.647Z,95.20
2022-11-14T09:51:07.042Z,95.30
2022-11-14T09:54:57.372Z,95.20
2022-11-14T09:58:42.853Z,95.30
2022-11-14T10:02:44.219Z,95.70
2022-11-14T10:06:34.733Z,96.00
2022-11-14T10:10:39.008Z,96.50
2022-11-14T10:15:01.571Z,96.80
2022-11-14T10:19:04.724Z,97.00
2022-11-14T10:23:13.604Z,97.40
2022-11-14T10:27:03.747Z,98.30
2022-11-14T10:30:56.043Z,99.90
2022-11-14T10:34:49.550Z,99.90
2022-11-14T10:38:39.878Z,99.40
2022-11-14T10:42:30.846Z,98.20
2022-11-14T10:46:21.706Z,97.70
2022-11-14T10:50:20.078Z,97.40
2022-11-14T10:54:13.472Z,97.10
2022-11-14T10:57:56.301Z,97.40
2022-11-14T11:01:42.929Z,97.50
2022-11-14T11:05:31.737Z,97.10
2022-11-14T11:09:37.272Z,96.80
2022-11-14T11:13:37.565Z,96.90
2022-11-14T11:17:29.575Z,97.60
2022-11-14T11:21:20.264Z,98.70
2022-11-14T11:25:02.648Z,98.70
2022-11-14T11:28:44.804Z,98.80
2022-11-14T11:32:28.322Z,98.80
2022-11-14T11:36:18.794Z,98.30
2022-11-14T11:40:07.146Z,97.80
2022-11-14T11:43:57.234Z,97.50
2022-11-14T11:47:44.327Z,97.00
2022-11-14T11:51:31.267Z,96.40
2022-11-14T11:55:21.691Z,96.10
2022-11-14T11:59:22.871Z,95.70
2022-11-14T12:03:13.420Z,95.60
2022-11-14T12:07:04.409Z,95.40
2022-11-14T12:10:47.063Z,95.10
2022-11-14T12:15:01.190Z,95.00
2022-11-14T12:19:41.119Z,94.40
2022-11-14T12:24:06.995Z,94.30
2022-11-14T12:28:12.633Z,95.00
2022-11-14T12:32:07.523Z,95.50
2022-11-14T12:35:55.669Z,96.10
2022-11-14T12:39:38.190Z,96.80
2022-11-14T12:43:37.319Z,97.60
2022-11-14T12:47:26.381Z,97.20
2022-11-14T12:51:51.951Z,96.90
2022-11-14T12:56:12.171Z,96.20
2022-11-14T13:00:05.776Z,95.70
2022-11-14T13:04:21.152Z,95.70
2022-11-14T13:08:30.876Z,95.60
2022-11-14T13:12:48.924Z,95.50
2022-11-14T13:16:50.918Z,95.10
2022-11-14T13:20:54.394Z,95.70
2022-11-14T13:25:19.782Z,95.50
2022-11-14T13:29:01.671Z,94.10
2022-11-14T13:33:05.277Z,94.50
2022-11-14T13:37:01.078Z,93.30
2022-11-14T13:40:57.582Z,93.50
2022-11-14T13:45:24.236Z,93.40
2022-11-14T13:49:37.867Z,92.80
2022-11-14T13:53:24.833Z,92.70
2022-11-14T13:57:25.935Z,93.00
2022-11-14T14:01:28.993Z,92.80
2022-11-14T14:05:31.273Z,92.90
2022-11-14T14:09:25.884Z,93.40
2022-11-14T14:13:28.001Z,93.80
2022-11-14T14:17:20.568Z,93.60
2022-11-14T14:21:17.758Z,93.80
2022-11-14T14:25:10.928Z,93.70
2022-11-14T14:29:07.585Z,94.20
2022-11-14T14:33:10.904Z,94.20
2022-11-14T14:36:54.819Z,94.70
2022-11-14T14:40:39.990Z,95.00
2022-11-14T14:44:29.758Z,94.90
2022-11-14T14:48:16.671Z,94.70
2022-11-14T14:51:59.060Z,94.50
2022-11-14T14:55:41.454Z,94.20
2022-11-14T14:59:28.175Z,93.90
2022-11-14T15:03:12.195Z,93.20
2022-11-14T15:06:57.381Z,92.90
2022-11-14T15:10:41.344Z,92.90
2022-11-14T15:14:28.618Z,92.70
2022-11-14T15:18:25.406Z,92.70
2022-11-14T15:22:25.526Z,93.00
2022-11-14T15:26:16.442Z,92.90
2022-11-14T15:30:05.191Z,93.50
2022-11-14T15:34:02.289Z,93.70
2022-11-14T15:38:41.901Z,93.90
2022-11-14T15:42:14.767Z,93.50
2022-11-14T15:45:58.088Z,94.10
2022-11-14T15:49:40.795Z,94.10
2022-11-14T15:53:28.223Z,93.80
2022-11-14T15:57:15.528Z,93.10
2022-11-14T16:00:59.031Z,92.70
2022-11-14T16:04:47.298Z,92.50
2022-11-14T16:08:30.240Z,92.30
2022-11-14T16:12:12.433Z,92.60
2022-11-14T16:15:54.721Z,92.50
2022-11-14T16:19:38.312Z,92.10
2022-11-14T16:23:20.271Z,91.50
2022-11-14T16:27:02.493Z,91.20
2022-11-14T16:30:45.053Z,90.90
2022-11-14T16:34:28.575Z,91.20
2022-11-14T16:38:14.662Z,92.70
2022-11-14T16:42:02.985Z,92.10
2022-11-14T16:45:45.008Z,91.90
2022-11-14T16:49:27.662Z,92.00
2022-11-14T16:53:10.888Z,92.20
2022-11-14T16:56:52.845Z,92.30
2022-11-14T17:00:35.772Z,92.20
2022-11-14T17:04:17.972Z,92.50
2022-11-14T17:08:00.207Z,92.10
2022-11-14T17:11:44.639Z,92.40
2022-11-14T17:15:26.545Z,92.10
2022-11-14T17:19:09.119Z,91.90
2022-11-14T17:22:51.419Z,91.80
2022-11-14T17:26:33.932Z,91.10
2022-11-14T17:30:18.831Z,91.00
2022-11-14T17:34:02.914Z,91.00
2022-11-14T17:37:45.105Z,91.30
2022-11-14T17:41:27.207Z,91.40
2022-11-14T17:45:10.568Z,91.50
2022-11-14T17:48:54.303Z,92.00
2022-11-14T17:52:36.508Z,92.00
2022-11-14T17:56:21.424Z,92.30
2022-11-14T18:00:05.297Z,91.90
2022-11-14T18:03:47.978Z,91.70
2022-11-14T18:07:33.053Z,91.10
2022-11-14T18:11:20.939Z,90.90
2022-11-14T18:15:02.973Z,90.90
2022-11-14T18:18:45.909Z,91.10
2022-11-14T18:22:28.682Z,91.20
2022-11-14T18:26:14.840Z,91.30
2022-11-14T18:30:08.093Z,91.20
2022-11-14T18:33:59.499Z,91.20
2022-11-14T18:37:41.615Z,91.30
2022-11-14T18:41:25.245Z,91.60
2022-11-14T18:45:08.729Z,91.70
2022-11-14T18:48:57.034Z,92.20
2022-11-14T18:52:39.263Z,92.30
2022-11-14T18:56:25.426Z,92.60
2022-11-14T19:00:10.186Z,92.50
2022-11-14T19:03:54.049Z,92.30
2022-11-14T19:07:36.421Z,91.90
2022-11-14T19:11:37.683Z,91.50
2022-11-14T19:15:21.535Z,91.20
2022-11-14T19:19:04.807Z,90.80
2022-11-14T19:22:47.097Z,90.70
2022-11-14T19:26:31.391Z,90.70
2022-11-14T19:30:14.605Z,90.40
2022-11-14T19:33:58.054Z,90.30
2022-11-14T19:37:39.990Z,90.00
2022-11-14T19:41:27.298Z,90.00
2022-11-14T19:45:10.589Z,89.40
2022-11-14T19:48:58.545Z,88.90
2022-11-14T19:52:40.735Z,88.10
2022-11-14T19:56:24.629Z,88.00
2022-11-14T20:00:08.356Z,87.70
2022-11-14T20:03:54.961Z,87.70
2022-11-14T20:07:38.881Z,87.60
2022-11-14T20:11:22.653Z,87.60
2022-11-14T20:15:06.204Z,87.70
2022-11-14T20:18:55.855Z,88.40
2022-11-14T20:22:42.090Z,87.70
2022-11-14T20:26:24.893Z,88.00
2022-11-14T20:30:09.347Z,88.20
2022-11-14T20:33:54.241Z,88.30
2022-11-14T20:37:36.415Z,88.40
2022-11-14T20:41:20.737Z,88.70
2022-11-14T20:45:03.383Z,89.10
2022-11-14T20:48:46.900Z,89.80
2022-11-14T20:52:29.049Z,90.30
2022-11-14T20:56:13.330Z,90.70
2022-11-14T20:59:57.225Z,91.00
2022-11-14T21:03:40.329Z,91.00
2022-11-14T21:07:22.571Z,91.50
2022-11-14T21:11:08.247Z,91.80
2022-11-14T21:14:50.518Z,92.10
2022-11-14T21:18:34.813Z,92.40
2022-11-14T21:22:16.901Z,92.60
2022-11-14T21:26:06.004Z,92.70
2022-11-14T21:29:47.932Z,92.50
2022-11-14T21:33:34.035Z,92.50
2022-11-14T21:37:16.244Z,92.30
2022-11-14T21:40:58.461Z,92.00
2022-11-14T21:44:40.674Z,91.80
2022-11-14T21:48:23.044Z,91.60
2022-11-14T21:52:06.569Z,91.80
2022-11-14T21:55:48.752Z,91.20
2022-11-14T21:59:31.434Z,91.20
2022-11-14T22:03:35.155Z,90.80
2022-11-14T22:07:18.777Z,90.60
2022-11-14T22:11:03.819Z,90.50
2022-11-14T22:14:46.124Z,90.30
2022-11-14T22:18:28.582Z,90.10
2022-11-14T22:22:10.713Z,89.60
2022-11-14T22:25:59.531Z,89.90
2022-11-14T22:29:41.836Z,89.60
2022-11-14T22:33:23.975Z,89.60
2022-11-14T22:37:06.268Z,89.60
2022-11-14T22:40:48.600Z,89.80
2022-11-14T22:44:32.307Z,90.00
2022-11-14T22:48:14.394Z,90.10
2022-11-14T22:51:56.772Z,90.40
2022-11-14T22:55:46.834Z,90.70
2022-11-14T22:59:28.812Z,90.90
2022-11-14T23:03:17.593Z,91.00
2022-11-14T23:07:03.342Z,91.10
2022-11-14T23:10:46.768Z,91.60
2022-11-14T23:14:28.765Z,92.00
2022-11-14T23:18:12.305Z,92.20
2022-11-14T23:21:55.658Z,92.40
2022-11-14T23:25:38.736Z,92.40
2022-11-14T23:29:21.065Z,92.40
2022-11-14T23:33:03.474Z,92.50
2022-11-14T23:36:46.761Z,92.40
2022-11-14T23:40:28.767Z,92.30
2022-11-14T23:44:11.038Z,92.60
2022-11-14T23:47:53.092Z,92.80
2022-11-14T23:51:35.324Z,92.80
2022-11-14T23:55:19.031Z,93.00
2022-11-14T23:59:01.065Z,93.00
